GVZ weather

Gonzalez Chaves Airport
Gonzalez Chaves, Buenos Aires Province, Argentina

Public forecast

Using degrees Celsius for public forecast. Weather courtesy of forecast.io.

Closest aviation weather report (METAR) to Gonzalez Chaves Airport

Report is more than 6 hours old.

Closest report is Héroes De Malvinas Airport, 64.2 nm (119.0 km) NE. Retrieved 2020/08/05 14:40 UTC (1 day ago):

SAZT 051440Z 34015G27KT 5000 BR NSC 20/14 Q1012

Closest aviation forecast (TAF) to Gonzalez Chaves Airport

Forecast is more than 12 hours old.

Closest forecast is Olavarria Airport, 68.5 nm (126.9 km) N. Retrieved 2017/07/03 00:00 UTC (3 years ago):

TAF SAZF 032300Z 0400/0424 02010KT CAVOK TX20/0418Z TN13/0410Z BECMG 0415/0417 03015G25KT